Latest Weather Observations for Camooweal

IDQ60801

Issued at 10:02 pm EST Thursday 21 September 2017 (issued every 30 minutes, with the page automatically refreshed every 10 minutes)

About weather observations | Map of weather stations | Latest weather observations for QLD | Other Formats
Station Details ID: 037010 Name: CAMOOWEAL TOWNSHIP Lat: -19.92 Lon: 138.12 Height: 231.2 m
Data from the previous 72 hours. | See also: Recent months at Camooweal
Date/Time
EST
Temp
°C
App
Temp
°C
Dew
Point
°C
Rel
Hum
%
Delta-T
°C
Wind Press
QNH
hPa
Press
MSL
hPa
Rain since
9am
mm
Dir  Spd
km/h
Gust
km/h
Spd
kts
Gust
kts
21/10:00pm 27.8 23.9 -1.2 15 13.5 N 9 11 5 6 1013.3 1012.2 0.0
21/09:30pm 26.9 23.4 -1.0 16 12.9 NNE 7 9 4 5 1013.0 1011.9 0.0
21/09:00pm 26.7 23.0 -3.0 14 13.3 NE 7 9 4 5 1012.8 1011.7 0.0
21/08:30pm 27.4 24.2 -3.4 13 13.7 N 4 7 2 4 1012.3 1011.2 0.0
21/08:00pm 27.5 25.3 -1.4 15 13.4 CALM 0 0 0 0 1012.0 1010.9 0.0
21/07:30pm 30.6 27.0 -2.0 12 15.3 NNW 7 9 4 5 1011.6 1010.5 0.0
21/07:00pm 31.9 28.9 -2.2 11 16.1 N 4 7 2 4 1011.3 1010.2 0.0
21/06:30pm 33.0 29.5 -1.4 11 16.6 WSW 7 9 4 5 1011.1 1010.0 0.0
21/06:00pm 35.4 32.0 -0.8 10 17.9 WSW 7 11 4 6 1010.9 1009.8 0.0
21/05:30pm 35.5 31.5 -2.2 9 18.2 SW 9 15 5 8 - - 0.0
21/05:00pm 36.1 32.4 -0.3 10 18.2 W 9 15 5 8 1010.7 1009.6 0.0
21/04:30pm 36.4 32.9 -1.5 9 18.6 W 7 15 4 8 1010.8 1009.7 0.0
21/04:00pm 36.2 30.8 -1.7 9 18.6 SSE 17 24 9 13 1010.8 1009.7 0.0
21/03:30pm 36.8 32.2 -1.2 9 18.8 W 13 19 7 10 1011.1 1010.0 0.0
21/03:00pm 36.6 32.5 0.1 10 18.4 NW 11 22 6 12 1011.5 1010.4 0.0
21/02:30pm 35.9 30.8 0.9 11 17.8 SSW 17 28 9 15 1011.9 1010.8 0.0
21/02:00pm 36.2 31.7 2.3 12 17.7 SW 15 28 8 15 1012.3 1011.2 0.0
21/01:30pm 35.4 31.4 0.5 11 17.6 SW 11 17 6 9 1012.9 1011.8 0.0
21/01:00pm 35.2 31.6 0.3 11 17.5 ESE 9 15 5 8 1013.5 1012.5 0.0
21/12:30pm 34.9 31.2 0.1 11 17.4 ESE 9 19 5 10 1014.2 1013.2 0.0
21/12:00pm 34.2 30.4 -0.4 11 17.1 SW 9 20 5 11 1014.8 1013.8 0.0
21/11:30am 33.7 29.5 -0.8 11 16.8 N 11 19 6 10 1015.3 1014.2 0.0
21/11:00am 33.7 29.1 -0.8 11 16.8 ENE 13 20 7 11 1015.7 1014.6 0.0
21/10:30am 33.7 28.0 -3.5 9 17.4 E 17 28 9 15 1016.0 1014.9 0.0
21/10:00am 33.1 27.0 -4.0 9 17.1 ESE 19 30 10 16 1016.3 1015.2 0.0
21/09:30am 32.0 25.8 -4.8 9 16.6 E 19 24 10 13 1016.5 1015.4 0.0
21/09:00am 30.6 24.8 -4.4 10 15.7 ESE 17 22 9 12 1016.5 1015.4 0.0
21/08:30am 28.5 22.8 -3.6 12 14.4 ESE 17 22 9 12 1016.3 1015.2 0.0
21/08:00am 26.2 21.6 -4.4 13 13.2 E 11 17 6 9 1016.0 1014.9 0.0
21/07:30am 23.5 19.3 -3.7 16 11.7 ESE 9 15 5 8 1015.8 1014.7 0.0
21/07:00am 20.8 16.2 -4.4 18 10.4 E 11 17 6 9 1015.4 1014.3 0.0
21/06:30am 21.0 16.4 -4.2 18 10.5 ESE 11 17 6 9 1015.2 1014.1 0.0
21/06:00am 20.5 15.8 -4.6 18 10.3 ESE 11 15 6 8 1014.8 1013.8 0.0
21/05:30am 21.6 16.2 -4.5 17 10.8 ESE 15 20 8 11 1014.6 1013.6 0.0
21/05:00am 20.3 15.3 -4.0 19 10.1 ESE 13 17 7 9 1014.4 1013.4 0.0
21/04:30am 19.7 14.7 -4.5 19 9.9 SE 13 17 7 9 1014.4 1013.4 0.0
21/04:00am 20.1 15.0 -4.9 18 10.1 SE 13 17 7 9 1014.5 1013.5 0.0
21/03:30am 20.7 15.8 -3.7 19 10.2 SE 13 15 7 8 1014.4 1013.4 0.0
21/03:00am 19.1 15.5 -3.7 21 9.4 SSE 6 9 3 5 1014.6 1013.6 0.0
21/02:30am 18.4 14.6 -3.7 22 9.0 SSW 7 9 4 5 1014.8 1013.8 0.0
21/02:00am 19.0 14.5 -3.2 22 9.2 SSW 11 11 6 6 1014.8 1013.8 0.0
21/01:30am 19.9 15.8 -3.0 21 9.6 SSW 9 11 5 6 1015.0 1014.0 0.0
21/01:00am 20.2 16.4 -4.1 19 10.0 ESE 7 11 4 6 1014.8 1013.8 0.0
21/12:30am 20.8 16.5 -5.1 17 10.5 ESE 9 13 5 7 1014.9 1013.9 0.0
21/12:00am 22.4 18.5 -4.6 16 11.3 SSE 7 9 4 5 1014.9 1013.9 0.0
 
Date/Time
EST
Temp
°C
App
Temp
°C
Dew
Point
°C
Rel
Hum
%
Delta-T
°C
Wind Press
QNH
hPa
Press
MSL
hPa
Rain since
9am
mm
Dir  Spd
km/h
Gust
km/h
Spd
kts
Gust
kts
20/11:30pm 21.3 19.0 -2.5 20 10.2 CALM 0 0 0 0 1014.8 1013.8 0.0
20/11:00pm 21.4 17.7 -3.1 19 10.4 SSW 7 9 4 5 1014.8 1013.8 0.0
20/10:30pm 21.3 17.2 -3.2 19 10.4 SSW 9 11 5 6 1014.8 1013.8 0.0
20/10:00pm 21.4 17.5 -1.8 21 10.1 SSW 9 11 5 6 1014.6 1013.6 0.0
20/09:30pm 22.8 18.7 -2.7 18 11.1 SSW 9 11 5 6 1014.5 1013.5 0.0
20/09:00pm 25.6 21.7 -1.2 17 12.3 WSW 9 13 5 7 1014.4 1013.4 0.0
20/08:30pm 26.0 21.6 -2.6 15 12.8 S 11 13 6 7 1014.0 1013.0 0.0
20/08:00pm 27.5 23.2 -1.4 15 13.4 SSW 11 15 6 8 1013.8 1012.8 0.0
20/07:30pm 28.9 24.1 -2.3 13 14.3 S 13 15 7 8 1013.4 1012.3 0.0
20/07:00pm 30.6 25.3 -0.9 13 15.0 SSW 17 19 9 10 1013.0 1011.9 0.0
20/06:30pm 32.2 27.0 0.3 13 15.7 SSW 17 20 9 11 1012.6 1011.5 0.0
20/06:00pm 33.9 28.8 0.5 12 16.7 SW 17 26 9 14 1012.3 1011.2 0.0
20/05:30pm 34.5 29.3 -0.2 11 17.2 SSW 17 26 9 14 1012.2 1011.1 0.0
20/05:00pm 34.8 29.2 0.0 11 17.3 SSW 19 24 10 13 1012.1 1011.0 0.0
20/04:30pm 35.6 32.0 0.6 11 17.7 SSE 9 30 5 16 1012.1 1011.0 0.0
20/04:00pm 35.9 32.7 0.9 11 17.8 W 7 11 4 6 1012.2 1011.1 0.0
20/03:30pm 35.5 31.9 0.6 11 17.6 ESE 9 24 5 13 1012.4 1011.3 0.0
20/03:00pm 35.4 31.6 1.7 12 17.3 N 11 19 6 10 1012.9 1011.8 0.0
20/02:30pm 35.3 31.5 1.6 12 17.3 NE 11 20 6 11 1013.3 1012.2 0.0
20/02:00pm 35.2 31.7 1.5 12 17.2 E 9 15 5 8 1013.9 1012.9 0.0
20/01:30pm 34.2 30.6 0.8 12 16.8 N 9 15 5 8 1014.5 1013.5 0.0
20/01:00pm 34.0 29.1 1.7 13 16.5 NE 17 26 9 14 1015.2 1014.1 0.0
20/12:30pm 33.8 30.0 1.6 13 16.4 NNE 11 20 6 11 1015.6 1014.5 0.0
20/12:00pm 34.1 30.1 2.8 14 16.2 E 13 20 7 11 1016.1 1015.0 0.0
20/11:30am 33.5 28.7 2.4 14 16.0 E 17 26 9 14 1016.7 1015.6 0.0
20/11:00am 31.9 27.0 2.1 15 15.1 E 17 26 9 14 1017.4 1016.4 0.0
20/10:30am 31.0 25.8 2.3 16 14.5 ESE 19 30 10 16 1017.7 1016.7 0.0
20/10:00am 29.5 23.8 -0.8 14 14.3 ESE 19 30 10 16 1018.2 1017.2 0.0
20/09:30am 28.3 22.0 -0.8 15 13.7 ESE 22 30 12 16 1018.3 1017.3 0.0
20/09:00am 25.5 19.5 -1.3 17 12.2 SE 20 28 11 15 1018.5 1017.5 0.0
20/08:30am 22.9 17.5 -1.2 20 10.8 SSE 17 20 9 11 1018.4 1017.4 0.0
20/08:00am 20.6 16.4 -0.7 24 9.4 S 11 17 6 9 1018.1 1017.1 0.0
20/07:59am 20.4 16.2 -0.8 24 9.4 S 11 17 6 9 1018.1 1017.1 0.0
20/07:30am 15.4 10.9 -3.0 28 7.4 SSW 11 13 6 7 1017.8 1016.8 0.0
20/07:00am 13.1 8.6 -3.2 32 6.4 SSW 11 13 6 7 1017.5 1016.5 0.0
20/06:30am 13.4 8.9 -3.4 31 6.6 SSW 11 11 6 6 1017.3 1016.3 0.0
20/06:00am 13.8 9.6 -3.5 30 6.8 SSW 9 11 5 6 1017.1 1016.0 0.0
20/05:30am 13.9 9.4 -3.4 30 6.8 SSW 11 13 6 7 1016.6 1015.5 0.0
20/05:00am 14.3 9.7 -4.4 27 7.2 SSW 11 13 6 7 1016.4 1015.3 0.0
20/04:30am 15.1 10.9 -3.7 27 7.4 SSW 9 9 5 5 1016.2 1015.1 0.0
20/04:00am 15.5 10.9 -4.4 25 7.8 SSW 11 13 6 7 1016.2 1015.1 0.0
20/03:30am 15.8 11.2 -4.2 25 7.9 SSW 11 13 6 7 1016.1 1015.0 0.0
20/03:00am 16.9 12.5 -5.5 21 8.7 SSW 9 11 5 6 1016.5 1015.4 0.0
20/02:30am 18.5 14.3 -4.2 21 9.2 SSW 9 11 5 6 1016.6 1015.5 0.0
20/02:00am 20.3 15.6 -5.5 17 10.3 S 11 15 6 8 1016.6 1015.5 0.0
20/01:30am 22.0 16.5 -5.8 15 11.3 SSE 15 19 8 10 1016.5 1015.4 0.0
20/01:00am 22.9 17.0 -6.0 14 11.8 SSE 17 20 9 11 1016.7 1015.6 0.0
20/12:30am 23.9 17.6 -6.2 13 12.3 SSE 19 26 10 14 1016.8 1015.7 0.0
20/12:00am 24.5 18.0 -5.7 13 12.6 SSE 20 30 11 16 1016.9 1015.8 0.0
 
Date/Time
EST
Temp
°C
App
Temp
°C
Dew
Point
°C
Rel
Hum
%
Delta-T
°C
Wind Press
QNH
hPa
Press
MSL
hPa
Rain since
9am
mm
Dir  Spd
km/h
Gust
km/h
Spd
kts
Gust
kts
19/11:30pm 25.5 19.0 -6.0 12 13.2 SSE 20 28 11 15 1017.0 1015.9 0.0
19/11:00pm 25.2 18.7 -6.2 12 13.0 SSE 20 26 11 14 1016.9 1015.8 0.0
19/10:30pm 26.2 18.9 -6.5 11 13.6 S 24 35 13 19 1016.9 1015.8 0.0
19/10:00pm 27.4 20.2 -5.6 11 14.1 S 24 33 13 18 1016.7 1015.6 0.0
19/09:30pm 25.8 19.5 -5.7 12 13.3 S 19 26 10 14 1016.6 1015.5 0.0
19/09:00pm 26.3 20.4 -5.3 12 13.5 S 17 19 9 10 1016.4 1015.3 0.0
19/08:30pm 27.8 22.3 -5.3 11 14.3 S 15 19 8 10 1016.0 1014.9 0.0
19/08:00pm 27.4 22.3 -5.6 11 14.1 S 13 17 7 9 1015.7 1014.6 0.0
19/07:30pm 28.9 23.5 -4.5 11 14.8 S 15 19 8 10 1015.3 1014.2 0.0
19/07:00pm 30.3 24.9 -4.7 10 15.6 S 15 17 8 9 1014.9 1013.9 0.0
19/06:30pm 32.1 27.2 -3.3 10 16.4 S 13 17 7 9 1014.6 1013.6 0.0
19/06:00pm 34.0 28.0 -3.3 9 17.5 S 19 28 10 15 1014.3 1013.3 0.0
19/05:30pm 34.7 29.9 -2.8 9 17.8 SSE 13 22 7 12 1014.0 1013.0 0.0
19/05:00pm 35.2 30.4 -2.4 9 18.1 SE 13 24 7 13 1013.9 1012.9 0.0
19/04:30pm 35.0 29.8 -2.6 9 18.0 SSW 15 22 8 12 1013.9 1012.9 0.0
19/04:00pm 35.0 29.8 -2.6 9 18.0 SSW 15 24 8 13 1014.0 1013.0 0.0
19/03:30pm 35.9 31.9 -1.9 9 18.4 SE 9 24 5 13 1014.0 1013.0 0.0
19/03:00pm 35.6 29.9 -0.7 10 18.0 SSW 19 32 10 17 1014.3 1013.3 0.0
19/02:30pm 35.4 30.8 -0.8 10 17.9 SW 13 22 7 12 1014.6 1013.6 0.0
19/02:00pm 34.8 29.4 -1.3 10 17.6 SE 17 28 9 15 1015.3 1014.2 0.0
19/01:30pm 34.7 28.7 -1.4 10 17.6 SE 20 26 11 14 1015.8 1014.7 0.0
19/01:00pm 34.3 29.4 -0.4 11 17.1 SSW 15 28 8 15 1016.4 1015.3 0.0
19/12:30pm 33.6 29.4 -0.9 11 16.8 ENE 11 20 6 11 1016.9 1015.8 0.0
19/12:00pm 34.5 30.8 -0.2 11 17.2 ENE 9 22 5 12 1017.6 1016.6 0.0
19/11:30am 33.9 29.9 0.5 12 16.7 ENE 11 20 6 11 1018.0 1017.0 0.0
19/11:00am 33.0 28.1 -0.2 12 16.3 E 15 28 8 15 1018.3 1017.3 0.0
19/10:30am 32.6 26.9 0.6 13 15.9 E 20 26 11 14 1018.6 1017.6 0.0
19/10:00am 31.7 25.9 -0.1 13 15.5 E 20 26 11 14 1018.7 1017.7 0.0
19/09:30am 31.1 25.0 0.5 14 15.0 E 22 30 12 16 1018.7 1017.7 0.0
19/09:00am 29.6 23.0 -0.7 14 14.4 E 24 35 13 19 1018.6 1017.6 0.0
19/08:30am 26.8 21.1 -1.1 16 12.9 E 19 26 10 14 1018.4 1017.4 0.0
19/08:00am 22.2 18.3 -1.8 20 10.5 ESE 9 15 5 8 1018.3 1017.3 0.0
19/07:58am 20.6 16.9 -3.1 20 10.0 ESE 7 13 4 7 1018.3 1017.3 0.0
19/07:30am 15.3 11.4 -6.9 21 8.2 SSW 6 7 3 4 1018.2 1017.2 0.0
19/07:00am 14.7 10.5 -7.4 21 8.0 SSW 7 9 4 5 1017.8 1016.8 0.0
19/06:30am 14.5 10.2 -4.7 26 7.4 SSW 9 9 5 5 1017.5 1016.5 0.0
19/06:00am 14.5 10.1 -5.8 24 7.6 SSW 9 9 5 5 1017.4 1016.4 0.0
19/05:30am 15.4 11.4 -5.6 23 8.0 SW 7 9 4 5 1017.1 1016.0 0.0
19/05:00am 15.7 11.8 -6.5 21 8.3 S 6 7 3 4 1016.9 1015.8 0.0
19/04:30am 15.8 11.8 -5.3 23 8.1 SSW 7 9 4 5 1016.6 1015.5 0.0
19/04:00am 16.9 13.1 -5.5 21 8.7 S 6 7 3 4 1016.5 1015.4 0.0
19/03:30am 16.5 12.1 -5.9 21 8.6 SSW 9 11 5 6 1016.7 1015.6 0.0
19/03:00am 17.2 13.3 -4.7 22 8.6 SSW 7 9 4 5 1016.8 1015.7 0.0
19/02:30am 16.8 12.9 -5.0 22 8.5 SSW 7 9 4 5 1016.9 1015.8 0.0
19/02:00am 18.5 14.5 -5.5 19 9.4 SSW 7 7 4 4 1016.9 1015.8 0.0
19/01:30am 19.3 15.0 -4.9 19 9.7 SSW 9 9 5 5 1017.2 1016.1 0.0
19/01:00am 20.7 17.0 -4.4 18 10.3 SSW 6 7 3 4 1017.6 1016.6 0.0
19/12:30am 21.5 17.2 -5.3 16 10.9 SSW 9 11 5 6 1017.5 1016.5 0.0
19/12:00am 22.1 18.2 -4.9 16 11.1 SSW 7 11 4 6 1017.6 1016.6 0.0
 
Date/Time
EST
Temp
°C
App
Temp
°C
Dew
Point
°C
Rel
Hum
%
Delta-T
°C
Wind Press
QNH
hPa
Press
MSL
hPa
Rain since
9am
mm
Dir  Spd
km/h
Gust
km/h
Spd
kts
Gust
kts
18/11:30pm 22.1 16.9 -5.7 15 11.3 SSE 13 13 7 7 1017.6 1016.6 0.0
18/11:00pm 22.1 17.3 -5.7 15 11.3 S 11 15 6 8 1017.6 1016.6 0.0
18/10:30pm 23.1 18.7 -5.8 14 11.9 SSW 9 11 5 6 1017.3 1016.3 0.0

Other Formats:

Comma delimited format used in spreadsheet applications
http://www.bom.gov.au/fwo/IDQ60801/IDQ60801.94255.axf

JavaScript Object Notation format (JSON) in row-major order
http://www.bom.gov.au/fwo/IDQ60801/IDQ60801.94255.json